首页
METAR-TAF:

METAR-TAF

机场 :

希洛國際機場

希洛, 夏威夷州, 美国

纬度: 19-43-20N, 经度: 155-03-21W, 海拔: 11米

当前天气观测

该预报发布于42分钟前的03:53 UTC
风速8节,风向东北
温度 27°C
湿度 62%
气压 1018 hPa
能見度: 16.1公里
阴天层高于4700英尺

METAR: PHTO 150353Z 04008KT 10SM OVC047 27/19 A3006 RMK AO2 SLP179 T02720194 $

时间: 18:35 (04:35 UTC)

预报

该预报发布于5小时和11分钟前的23:24 UTC
预报有效从15日的 00点(UTC)到 15日的 24点(UTC)
风速11节,风向东转东北
能見度: 10公里
散云层高于2500英尺
多云层高于5000英尺
从 15日的 0600点(UTC)
风速4节,风向多变
能見度: 10公里
散云层高于2500英尺
阴天层高于4500英尺
附近有阵雨
从 15日的 1900点(UTC)
风速10节,风向东转东北
能見度: 10公里
少量云层高于3000英尺
多云层高于5000英尺

TAF: PHTO 142324Z 1500/1524 06011KT P6SM SCT025 BKN050 FM150600 VRB04KT P6SM VCSH SCT025 OVC045 FM151900 06010KT P6SM FEW030 BKN050

超过4000个机场的气象观测和天气预报(METAR&TAF报告)。

可查询的气象台以黄色和红色小点在地图上表示。

将鼠标移到小点上方,可查看气象台名称。

然后点击查看天气观测和预报。

如需切换地图:点击带黑十字的绿色按钮放大地图;点击带横线的绿色按钮缩小地图;或者点击绿色箭头查看邻近地区的地图。


METAR-TAF: